Time;durP1;ratioP1;P1;durP2;ratioP2;P2;SDS_P1;SDS_P2;PMS_P1;PMS_P2;Temp;Humidity;BMP_temperature;BMP_pressure;BME280_temperature;BME280_humidity;BME280_pressure;Samples;Min_cycle;Max_cycle;Signal;HPM_P1;HPM_P2
2021/07/04 00:00:09;;;;;;;;;;;;;;;16.37;100.00;100616.91;5071031;28;19929;-72
2021/07/04 00:02:35;;;;;;;;;;;;;;;16.33;100.00;100619.09;5072210;28;20274;-72
2021/07/04 00:05:02;;;;;;;;;;;;;;;16.34;100.00;100622.69;5071416;28;19978;-72
2021/07/04 00:07:28;;;;;;;;;;;;;;;16.33;100.00;100623.75;5071905;28;19974;-72
2021/07/04 00:09:54;;;;;;;;;;;;;;;16.36;100.00;100617.91;5071940;28;19925;-72
2021/07/04 00:12:22;;;;;;;;;;;;;;;16.40;100.00;100611.09;5072117;28;20379;-72
2021/07/04 00:14:48;;;;;;;;;;;;;;;16.36;100.00;100621.50;5072036;28;19924;-72
2021/07/04 00:17:15;;;;;;;;;;;;;;;16.33;100.00;100621.00;5071837;28;19986;-72
2021/07/04 00:19:42;;;;;;;;;;;;;;;16.30;100.00;100613.97;5070589;28;20341;-72
2021/07/04 00:22:08;;;;;;;;;;;;;;;16.31;100.00;100617.56;5071965;28;19928;-72
2021/07/04 00:24:35;;;;;;;;;;;;;;;16.32;100.00;100614.66;5071806;28;20477;-72
2021/07/04 00:27:01;;;;;;;;;;;;;;;16.35;100.00;100613.47;5071278;28;20380;-71
2021/07/04 00:29:29;;;;;;;;;;;;;;;16.34;100.00;100611.75;5070546;28;19932;-71
2021/07/04 00:31:55;;;;;;;;;;;;;;;16.34;100.00;100611.75;5071764;28;19978;-70
2021/07/04 00:34:21;;;;;;;;;;;;;;;16.37;100.00;100611.44;5071726;28;19924;-71
2021/07/04 00:36:48;;;;;;;;;;;;;;;16.38;100.00;100604.91;5071623;28;20380;-69
2021/07/04 00:39:14;;;;;;;;;;;;;;;16.37;100.00;100604.06;5070307;28;19924;-71
2021/07/04 00:41:40;;;;;;;;;;;;;;;16.42;100.00;100602.69;5071675;28;19931;-71
2021/07/04 00:44:07;;;;;;;;;;;;;;;16.39;100.00;100604.75;5071208;28;19970;-71
2021/07/04 00:46:34;;;;;;;;;;;;;;;16.41;100.00;100599.13;5071375;28;20380;-71
2021/07/04 00:49:02;;;;;;;;;;;;;;;16.39;100.00;100599.28;5070278;28;19924;-72
2021/07/04 00:51:30;;;;;;;;;;;;;;;16.39;100.00;100599.28;5070325;28;19928;-72
2021/07/04 00:53:58;;;;;;;;;;;;;;;16.37;100.00;100593.09;5070405;28;19924;-72
2021/07/04 00:56:24;;;;;;;;;;;;;;;16.36;100.00;100598.75;5071393;28;19928;-72
2021/07/04 00:58:52;;;;;;;;;;;;;;;16.37;100.00;100595.00;5088443;28;20395;-72
2021/07/04 01:01:19;;;;;;;;;;;;;;;16.33;100.00;100596.34;5091091;28;19928;-72
2021/07/04 01:03:47;;;;;;;;;;;;;;;16.34;100.00;100598.91;5091536;28;20379;-72
2021/07/04 01:06:13;;;;;;;;;;;;;;;16.34;100.00;100598.03;5073421;28;19924;-72
2021/07/04 01:08:41;;;;;;;;;;;;;;;16.34;100.00;100601.66;5073252;28;19924;-72
2021/07/04 01:11:07;;;;;;;;;;;;;;;16.37;100.00;100598.56;5091411;28;19928;-72
2021/07/04 01:13:34;;;;;;;;;;;;;;;16.37;100.00;100592.25;5090299;28;20387;-72
2021/07/04 01:16:09;;;;;;;;;;;;;;;16.37;100.00;100593.09;5090103;28;19928;-72
2021/07/04 01:18:35;;;;;;;;;;;;;;;16.39;100.00;100595.66;5091205;28;19955;-73
2021/07/04 01:21:06;;;;;;;;;;;;;;;16.38;100.00;100591.22;5089715;28;20041;-72
2021/07/04 01:23:38;;;;;;;;;;;;;;;16.39;100.00;100587.44;5091227;28;20061;-72
2021/07/04 01:26:06;;;;;;;;;;;;;;;16.37;100.00;100595.00;5091157;28;20452;-72
2021/07/04 01:28:34;;;;;;;;;;;;;;;16.38;100.00;100591.22;5089943;28;20014;-72
2021/07/04 01:31:09;;;;;;;;;;;;;;;16.36;100.00;100590.53;5091241;28;19924;-72
2021/07/04 01:33:39;;;;;;;;;;;;;;;16.33;100.00;100591.72;5090105;28;20019;-72
2021/07/04 01:36:14;;;;;;;;;;;;;;;16.32;100.00;100587.25;5089866;28;19924;-72
2021/07/04 01:38:45;;;;;;;;;;;;;;;16.31;100.00;100590.16;5089692;28;19924;-72
2021/07/04 01:41:13;;;;;;;;;;;;;;;16.32;100.00;100591.88;5089830;28;20019;-71
2021/07/04 01:43:39;;;;;;;;;;;;;;;16.28;100.00;100580.41;5089868;28;20375;-71
2021/07/04 01:46:06;;;;;;;;;;;;;;;16.29;100.00;100586.72;5091185;28;19967;-71
2021/07/04 01:48:34;;;;;;;;;;;;;;;16.23;100.00;100583.66;5089598;28;19974;-71
2021/07/04 01:51:04;;;;;;;;;;;;;;;16.22;100.00;100586.53;5089920;28;19982;-71
2021/07/04 01:53:32;;;;;;;;;;;;;;;16.19;100.00;100590.47;5089598;28;20412;-71
2021/07/04 01:56:10;;;;;;;;;;;;;;;16.15;100.00;100586.31;5089765;28;19931;-71
2021/07/04 01:58:45;;;;;;;;;;;;;;;16.12;100.00;100588.56;5091003;28;19931;-71
2021/07/04 02:01:15;;;;;;;;;;;;;;;16.09;100.00;100587.00;5089603;28;19924;-71
2021/07/04 02:03:41;;;;;;;;;;;;;;;16.06;100.00;100590.94;5091061;28;19974;-72
2021/07/04 02:06:13;;;;;;;;;;;;;;;16.04;100.00;100586.63;5089535;28;19974;-72
2021/07/04 02:08:42;;;;;;;;;;;;;;;16.04;100.00;100590.22;5090948;28;19924;-72
2021/07/04 02:11:11;;;;;;;;;;;;;;;16.01;100.00;100595.19;5090647;28;19936;-72
2021/07/04 02:13:42;;;;;;;;;;;;;;;16.00;100.00;100593.47;5123856;28;19924;-72
2021/07/04 02:16:15;;;;;;;;;;;;;;;16.01;100.00;100585.09;5089407;28;19924;-72
2021/07/04 02:18:50;;;;;;;;;;;;;;;16.00;100.00;100588.84;5089504;28;20329;-72
2021/07/04 02:21:46;;;;;;;;;;;;;;;16.02;100.00;100594.13;5073149;28;19924;-72
2021/07/04 02:24:31;;;;;;;;;;;;;;;16.02;100.00;100588.66;5072552;28;20306;-72
2021/07/04 02:26:59;;;;;;;;;;;;;;;16.02;100.00;100591.41;5091225;28;19952;-72
2021/07/04 02:29:35;;;;;;;;;;;;;;;16.04;100.00;100592.09;5093189;28;20361;-72
2021/07/04 02:32:06;;;;;;;;;;;;;;;16.05;100.00;100582.88;5093112;28;20236;-72
2021/07/04 02:34:32;;;;;;;;;;;;;;;16.06;100.00;100581.84;5093142;28;19974;-72
2021/07/04 02:37:01;;;;;;;;;;;;;;;16.05;100.00;100593.84;5093041;28;19927;-72
2021/07/04 02:39:35;;;;;;;;;;;;;;;16.06;100.00;100588.19;5093065;28;19924;-72
2021/07/04 02:42:06;;;;;;;;;;;;;;;16.11;100.00;100586.84;5093213;28;19924;-72
2021/07/04 02:44:35;;;;;;;;;;;;;;;16.12;100.00;100591.28;5092953;28;19924;-72
2021/07/04 02:47:02;;;;;;;;;;;;;;;16.16;100.00;100588.03;5092354;28;19965;-72
2021/07/04 02:49:30;;;;;;;;;;;;;;;16.16;100.00;100588.03;5092982;28;20360;-72
2021/07/04 02:51:57;;;;;;;;;;;;;;;16.16;100.00;100590.78;5092757;28;20011;-72
2021/07/04 02:54:24;;;;;;;;;;;;;;;16.15;100.00;100583.59;5083125;28;19924;-72
2021/07/04 02:56:55;;;;;;;;;;;;;;;16.16;100.00;100579.00;5072189;28;19924;-72
2021/07/04 02:59:24;;;;;;;;;;;;;;;16.17;100.00;100584.28;5072420;28;19931;-72
2021/07/04 03:01:50;;;;;;;;;;;;;;;16.18;100.00;100574.19;5072565;28;19924;-72
2021/07/04 03:04:17;;;;;;;;;;;;;;;16.20;100.00;100583.09;5071939;28;20399;-72
2021/07/04 03:06:44;;;;;;;;;;;;;;;16.21;100.00;100582.09;5073146;28;19982;-72
2021/07/04 03:09:10;;;;;;;;;;;;;;;16.24;100.00;100574.38;5073157;28;19925;-72
2021/07/04 03:11:37;;;;;;;;;;;;;;;16.22;100.00;100579.19;5072285;28;19924;-71
2021/07/04 03:14:04;;;;;;;;;;;;;;;16.28;100.00;100585.03;5073390;28;19974;-72
2021/07/04 03:16:31;;;;;;;;;;;;;;;16.30;100.00;100583.84;5071751;28;20388;-72
2021/07/04 03:18:58;;;;;;;;;;;;;;;16.31;100.00;100584.69;5071985;28;20304;-71
2021/07/04 03:21:25;;;;;;;;;;;;;;;16.32;100.00;100587.25;5073033;28;19924;-71
2021/07/04 03:23:52;;;;;;;;;;;;;;;16.34;100.00;100581.59;5071925;28;19924;-71
2021/07/04 03:26:20;;;;;;;;;;;;;;;16.36;100.00;100583.16;5054724;28;19967;-71
2021/07/04 03:28:48;;;;;;;;;;;;;;;16.35;100.00;100584.19;5071689;28;19936;-71
2021/07/04 03:31:23;;;;;;;;;;;;;;;16.44;100.00;100592.44;5071768;28;19924;-71
2021/07/04 03:33:52;;;;;;;;;;;;;;;16.44;100.00;100585.06;5071597;28;19928;-70
2021/07/04 03:36:22;;;;;;;;;;;;;;;16.46;100.00;100576.69;5071523;28;19928;-71
2021/07/04 03:38:49;;;;;;;;;;;;;;;16.49;100.00;100587.28;5071522;28;19931;-71
2021/07/04 03:41:16;;;;;;;;;;;;;;;16.50;100.00;100589.03;5071477;28;19924;-71
2021/07/04 03:43:43;;;;;;;;;;;;;;;16.53;100.00;100591.44;5071146;28;19924;-71
2021/07/04 03:46:10;;;;;;;;;;;;;;;16.53;100.00;100584.06;5071376;28;20399;-72
2021/07/04 03:48:42;;;;;;;;;;;;;;;16.55;100.00;100589.38;5071219;28;19952;-72
2021/07/04 03:51:18;;;;;;;;;;;;;;;16.59;100.00;100598.13;5072402;28;19959;-72
2021/07/04 03:53:45;;;;;;;;;;;;;;;16.60;100.00;100603.44;5071516;28;20027;-72
2021/07/04 03:56:12;;;;;;;;;;;;;;;16.61;100.00;100598.81;5079797;28;20411;-72
2021/07/04 03:58:39;;;;;;;;;;;;;;;16.62;100.00;100593.19;5070384;28;20454;-72
2021/07/04 04:01:09;;;;;;;;;;;;;;;16.65;100.00;100583.75;5070948;28;20421;-72
2021/07/04 04:03:40;;;;;;;;;;;;;;;16.67;100.00;100589.94;5069462;28;19924;-72
2021/07/04 04:06:07;;;;;;;;;;;;;;;16.66;100.00;100589.09;5071083;28;19931;-73
2021/07/04 04:08:41;;;;;;;;;;;;;;;16.66;100.00;100596.44;5070233;28;19925;-72
2021/07/04 04:11:08;;;;;;;;;;;;;;;16.69;100.00;100576.94;5070485;28;19924;-72
2021/07/04 04:13:43;;;;;;;;;;;;;;;16.71;100.00;100586.66;5071957;28;19928;-72
2021/07/04 04:16:15;;;;;;;;;;;;;;;16.71;100.00;100591.31;5070651;28;20417;-72
2021/07/04 04:18:44;;;;;;;;;;;;;;;16.69;100.00;100604.34;5070533;28;19925;-72
2021/07/04 04:21:11;;;;;;;;;;;;;;;16.74;100.00;100597.31;5070407;28;20422;-72
2021/07/04 04:23:41;;;;;;;;;;;;;;;16.77;100.00;100590.66;5069988;28;19932;-72
2021/07/04 04:26:10;;;;;;;;;;;;;;;16.80;100.00;100593.03;5070283;28;19940;-72
2021/07/04 04:28:37;;;;;;;;;;;;;;;16.84;100.00;100591.66;5053141;28;19947;-72
2021/07/04 04:31:04;;;;;;;;;;;;;;;16.87;100.00;100591.31;5070329;28;19936;-72
2021/07/04 04:33:31;;;;;;;;;;;;;;;16.90;100.00;100593.78;5070425;28;19928;-72
2021/07/04 04:36:00;;;;;;;;;;;;;;;16.92;100.00;100593.59;5070103;28;19931;-72
2021/07/04 04:38:26;;;;;;;;;;;;;;;17.01;100.00;100594.44;5071130;28;20364;-73
2021/07/04 04:40:54;;;;;;;;;;;;;;;17.09;100.00;100589.00;5071016;28;19937;-72
2021/07/04 04:43:20;;;;;;;;;;;;;;;17.18;100.00;100587.09;5069928;28;19928;-73
2021/07/04 04:45:46;;;;;;;;;;;;;;;17.29;100.00;100577.66;5071008;28;19978;-72
2021/07/04 04:48:13;;;;;;;;;;;;;;;17.39;100.00;100581.09;5071282;28;20516;-72
2021/07/04 04:50:39;;;;;;;;;;;;;;;17.47;100.00;100574.75;5070891;28;19924;-72
2021/07/04 04:53:05;;;;;;;;;;;;;;;17.53;100.00;100571.28;5071211;28;19925;-72
2021/07/04 04:55:32;;;;;;;;;;;;;;;17.65;100.00;100575.41;5072537;28;19928;-72
2021/07/04 04:57:59;;;;;;;;;;;;;;;17.72;100.00;100567.31;5070440;28;19929;-72
2021/07/04 05:00:25;;;;;;;;;;;;;;;17.84;100.00;100570.56;5070901;28;19925;-72
2021/07/04 05:02:52;;;;;;;;;;;;;;;17.94;100.00;100571.22;5070867;28;19982;-72
2021/07/04 05:05:20;;;;;;;;;;;;;;;18.07;100.00;100562.44;5071208;28;20384;-72
2021/07/04 05:07:48;;;;;;;;;;;;;;;18.15;100.00;100562.41;5070841;28;20387;-72
2021/07/04 05:10:14;;;;;;;;;;;;;;;18.20;100.00;100559.97;5070865;28;20027;-72
2021/07/04 05:12:40;;;;;;;;;;;;;;;18.30;100.00;100556.16;5070747;28;19924;-72
2021/07/04 05:15:09;;;;;;;;;;;;;;;18.38;100.00;100564.34;5069414;28;20466;-73
2021/07/04 05:17:35;;;;;;;;;;;;;;;18.40;100.00;100565.03;5070907;28;19959;-72
2021/07/04 05:20:01;;;;;;;;;;;;;;;18.54;100.00;100561.50;5070443;28;19951;-72
2021/07/04 05:22:28;;;;;;;;;;;;;;;18.69;100.00;100566.22;5070851;28;20023;-72
2021/07/04 05:24:54;;;;;;;;;;;;;;;18.80;100.00;100554.81;5070604;28;20367;-72
2021/07/04 05:27:20;;;;;;;;;;;;;;;18.91;100.00;100556.31;5070521;28;20026;-72
2021/07/04 05:29:47;;;;;;;;;;;;;;;19.03;100.00;100556.75;5070175;28;19924;-72
2021/07/04 05:32:14;;;;;;;;;;;;;;;19.17;100.00;100553.16;5070296;28;20442;-72
2021/07/04 05:34:41;;;;;;;;;;;;;;;19.30;100.00;100557.19;5070078;28;20299;-73
2021/07/04 05:37:07;;;;;;;;;;;;;;;19.39;100.00;100561.59;5069795;28;20106;-73
2021/07/04 05:39:33;;;;;;;;;;;;;;;19.46;100.00;100561.69;5069624;28;19958;-73
2021/07/04 05:42:00;;;;;;;;;;;;;;;19.56;100.00;100565.88;5071225;28;19972;-73
2021/07/04 05:44:26;;;;;;;;;;;;;;;19.56;100.00;100560.38;5070856;28;20445;-73
2021/07/04 05:46:52;;;;;;;;;;;;;;;19.65;100.00;100557.53;5070837;28;19968;-72
2021/07/04 05:49:20;;;;;;;;;;;;;;;19.77;100.00;100556.00;5069493;28;20428;-72
2021/07/04 05:51:46;;;;;;;;;;;;;;;19.68;100.00;100554.38;5069683;28;19928;-71
2021/07/04 05:54:12;;;;;;;;;;;;;;;19.77;100.00;100550.50;5070768;28;19991;-71
2021/07/04 05:56:39;;;;;;;;;;;;;;;19.84;100.00;100561.66;5070774;28;19960;-72
2021/07/04 05:59:05;;;;;;;;;;;;;;;19.98;100.00;100557.19;5070303;28;20210;-71
2021/07/04 06:01:32;;;;;;;;;;;;;;;20.08;100.00;100557.75;5070245;28;20330;-72
2021/07/04 06:03:58;;;;;;;;;;;;;;;20.22;100.00;100559.63;5074196;28;19971;-72
2021/07/04 06:06:26;;;;;;;;;;;;;;;20.21;100.00;100557.91;5074251;28;19960;-72
2021/07/04 06:08:52;;;;;;;;;;;;;;;20.33;100.00;100554.69;5074557;28;20421;-71
2021/07/04 06:11:18;;;;;;;;;;;;;;;20.37;100.00;100558.75;5074015;28;19924;-71
2021/07/04 06:13:44;;;;;;;;;;;;;;;20.52;100.00;100564.22;5074319;28;20464;-71
2021/07/04 06:16:11;;;;;;;;;;;;;;;20.58;100.00;100558.78;5073821;28;19966;-71
2021/07/04 06:18:37;;;;;;;;;;;;;;;20.58;100.00;100557.94;5073650;28;19986;-71
2021/07/04 06:21:04;;;;;;;;;;;;;;;20.64;100.00;100557.16;5074298;28;19962;-70
2021/07/04 06:23:31;;;;;;;;;;;;;;;20.60;100.00;100553.06;5074252;28;20392;-70
2021/07/04 06:25:57;;;;;;;;;;;;;;;20.38;100.00;100554.97;5073984;28;19924;-71
2021/07/04 06:28:24;;;;;;;;;;;;;;;20.46;100.00;100565.88;5073671;28;19924;-72
2021/07/04 06:30:50;;;;;;;;;;;;;;;20.53;100.00;100569.53;5075771;28;19924;-71
2021/07/04 06:33:16;;;;;;;;;;;;;;;20.60;100.00;100560.50;5073528;28;20409;-71
2021/07/04 06:35:43;;;;;;;;;;;;;;;20.74;100.00;100562.41;5072644;28;19989;-71
2021/07/04 06:38:09;;;;;;;;;;;;;;;20.82;100.00;100559.50;5077571;28;20015;-71
2021/07/04 06:40:36;;;;;;;;;;;;;;;20.86;100.00;100560.81;5093963;28;19970;-72
2021/07/04 06:43:03;;;;;;;;;;;;;;;20.93;100.00;100560.06;5082043;28;19928;-71
2021/07/04 06:45:29;;;;;;;;;;;;;;;21.06;100.00;100552.75;5073361;28;20526;-71
2021/07/04 06:47:55;;;;;;;;;;;;;;;21.27;100.00;100550.16;5073654;28;19978;-71
2021/07/04 06:50:22;;;;;;;;;;;;;;;21.30;100.00;100552.50;5072461;28;20399;-71
2021/07/04 06:52:49;;;;;;;;;;;;;;;21.35;100.00;100547.25;5074855;28;20024;-72
2021/07/04 06:55:15;;;;;;;;;;;;;;;21.60;100.00;100544.91;5073327;28;20348;-72
2021/07/04 06:57:43;;;;;;;;;;;;;;;21.72;100.00;100537.75;5072078;28;19936;-72
2021/07/04 07:00:11;;;;;;;;;;;;;;;21.98;100.00;100539.00;5072389;28;19925;-69
2021/07/04 07:02:37;;;;;;;;;;;;;;;22.12;100.00;100536.31;5062279;28;19924;-69
2021/07/04 07:05:04;;;;;;;;;;;;;;;22.26;100.00;100534.44;5071993;28;20027;-68
2021/07/04 07:07:30;;;;;;;;;;;;;;;22.41;100.00;100537.94;5071330;28;19971;-69
2021/07/04 07:09:57;;;;;;;;;;;;;;;22.70;100.00;100538.63;5072627;28;19931;-69
2021/07/04 07:12:23;;;;;;;;;;;;;;;22.51;100.00;100532.84;5073246;28;20037;-69
2021/07/04 07:14:50;;;;;;;;;;;;;;;22.69;100.00;100525.91;5072885;28;19963;-68
2021/07/04 07:17:17;;;;;;;;;;;;;;;22.86;100.00;100520.78;5073173;28;19978;-68
2021/07/04 07:19:44;;;;;;;;;;;;;;;23.44;100.00;100520.19;5071306;28;19928;-68
2021/07/04 07:22:18;;;;;;;;;;;;;;;23.89;100.00;100522.25;5071772;28;20342;-68
2021/07/04 07:24:45;;;;;;;;;;;;;;;24.48;100.00;100525.88;5072983;28;19978;-68
2021/07/04 07:27:11;;;;;;;;;;;;;;;24.67;100.00;100526.00;5070775;28;19924;-68
2021/07/04 07:29:37;;;;;;;;;;;;;;;24.87;100.00;100515.59;5072780;28;20419;-68
2021/07/04 07:32:06;;;;;;;;;;;;;;;25.12;100.00;100516.69;5071871;28;19981;-68
2021/07/04 07:34:32;;;;;;;;;;;;;;;25.20;100.00;100513.63;5072867;28;20419;-68
2021/07/04 07:36:58;;;;;;;;;;;;;;;25.37;100.00;100512.03;5105380;28;19925;-68
2021/07/04 07:39:24;;;;;;;;;;;;;;;25.36;100.00;100512.25;5072435;28;20392;-68
2021/07/04 07:41:51;;;;;;;;;;;;;;;25.00;100.00;100519.34;5072947;28;19924;-69
2021/07/04 07:44:18;;;;;;;;;;;;;;;24.83;100.00;100506.03;5072502;28;19924;-68
2021/07/04 07:46:51;;;;;;;;;;;;;;;24.49;100.00;100510.06;5070624;28;19924;-69
2021/07/04 07:49:19;;;;;;;;;;;;;;;24.23;100.00;100507.19;5072100;28;19931;-69
2021/07/04 07:51:50;;;;;;;;;;;;;;;24.20;100.00;100509.59;5072257;28;19982;-69
2021/07/04 07:54:20;;;;;;;;;;;;;;;23.93;100.00;100508.81;5071337;28;19984;-69
2021/07/04 07:56:47;;;;;;;;;;;;;;;23.90;100.00;100516.53;5072236;28;19925;-69
2021/07/04 07:59:14;;;;;;;;;;;;;;;23.38;100.00;100516.38;5072620;28;19981;-69
2021/07/04 08:01:40;;;;;;;;;;;;;;;23.23;100.00;100504.66;5071817;28;19979;-69
2021/07/04 08:04:10;;;;;;;;;;;;;;;22.92;100.00;100499.75;5071564;28;19924;-70
2021/07/04 08:06:39;;;;;;;;;;;;;;;23.04;100.00;100506.34;5071930;28;19967;-69
2021/07/04 08:09:09;;;;;;;;;;;;;;;23.17;100.00;100503.59;5070870;28;20391;-69
2021/07/04 08:11:45;;;;;;;;;;;;;;;23.30;100.00;100501.88;5077594;28;19931;-70
2021/07/04 08:14:12;;;;;;;;;;;;;;;23.13;100.00;100498.66;5078492;28;19928;-70
2021/07/04 08:16:44;;;;;;;;;;;;;;;23.37;100.00;100488.88;5071779;28;20392;-70
2021/07/04 08:19:11;;;;;;;;;;;;;;;23.99;100.00;100489.41;5070529;28;19924;-70
2021/07/04 08:21:38;;;;;;;;;;;;;;;25.23;100.00;100489.06;5067160;28;19925;-69
2021/07/04 08:24:05;;;;;;;;;;;;;;;26.17;95.75;100490.84;5070360;28;20432;-69
2021/07/04 08:26:31;;;;;;;;;;;;;;;26.14;99.66;100479.38;5070325;28;19964;-69
2021/07/04 08:28:57;;;;;;;;;;;;;;;26.86;100.00;100476.63;5071806;28;20350;-69
2021/07/04 08:31:25;;;;;;;;;;;;;;;27.83;96.01;100480.06;5071119;28;19970;-68
2021/07/04 08:33:51;;;;;;;;;;;;;;;28.53;84.93;100478.13;5069811;28;19963;-69
2021/07/04 08:36:17;;;;;;;;;;;;;;;28.60;86.42;100480.75;5070293;28;20014;-69
2021/07/04 08:38:45;;;;;;;;;;;;;;;28.52;88.04;100476.44;5071142;28;20019;-69
2021/07/04 08:41:11;;;;;;;;;;;;;;;28.69;88.52;100479.28;5071014;28;20341;-69
2021/07/04 08:43:38;;;;;;;;;;;;;;;28.61;85.15;100473.22;5070464;28;19971;-69
2021/07/04 08:46:05;;;;;;;;;;;;;;;28.12;90.56;100468.97;5071319;28;19959;-69
2021/07/04 08:48:32;;;;;;;;;;;;;;;27.78;99.11;100470.72;5073172;28;20323;-69
2021/07/04 08:50:59;;;;;;;;;;;;;;;27.45;99.99;100461.06;5069080;28;20403;-70
2021/07/04 08:53:25;;;;;;;;;;;;;;;27.82;90.76;100463.53;5069604;28;20395;-70
2021/07/04 08:55:53;;;;;;;;;;;;;;;28.55;81.49;100459.19;5070947;28;20015;-69
2021/07/04 08:58:20;;;;;;;;;;;;;;;28.82;77.13;100460.50;5069320;28;20362;-69
2021/07/04 09:01:07;;;;;;;;;;;;;;;29.88;72.85;100451.25;5070397;28;19952;-69
2021/07/04 09:03:33;;;;;;;;;;;;;;;30.58;53.78;100450.66;5071479;28;20410;-68
2021/07/04 09:06:00;;;;;;;;;;;;;;;30.60;61.85;100444.81;5070977;28;19976;-68
2021/07/04 09:08:26;;;;;;;;;;;;;;;30.62;55.39;100445.41;5070958;28;19956;-69
2021/07/04 09:11:07;;;;;;;;;;;;;;;30.99;54.52;100447.41;5070384;28;19929;-69
2021/07/04 09:13:35;;;;;;;;;;;;;;;31.13;55.27;100451.44;5070675;28;20027;-69
2021/07/04 09:16:04;;;;;;;;;;;;;;;30.75;55.79;100449.69;5070956;28;20071;-69
2021/07/04 09:18:31;;;;;;;;;;;;;;;30.67;56.68;100449.06;5070920;28;20362;-67
2021/07/04 09:20:57;;;;;;;;;;;;;;;30.70;58.94;100447.69;5070220;28;19931;-69
2021/07/04 09:23:32;;;;;;;;;;;;;;;30.64;51.72;100445.94;5070516;28;19964;-69
2021/07/04 09:25:58;;;;;;;;;;;;;;;30.98;54.94;100445.72;5070827;28;19967;-69
2021/07/04 09:28:25;;;;;;;;;;;;;;;31.07;48.76;100451.66;5070221;28;20370;-69
2021/07/04 09:30:54;;;;;;;;;;;;;;;31.37;51.01;100445.44;5071001;28;20459;-69
2021/07/04 09:33:23;;;;;;;;;;;;;;;30.59;65.55;100451.50;5070067;28;20016;-68
2021/07/04 09:35:53;;;;;;;;;;;;;;;29.99;61.55;100451.41;5070982;28;19970;-68
2021/07/04 09:38:20;;;;;;;;;;;;;;;28.99;55.60;100446.56;5074155;28;19931;-68
2021/07/04 09:40:47;;;;;;;;;;;;;;;28.64;58.79;100450.41;5074879;28;20028;-69
2021/07/04 09:43:15;;;;;;;;;;;;;;;28.28;59.33;100452.53;5074438;28;20052;-68
2021/07/04 09:45:44;;;;;;;;;;;;;;;28.19;68.29;100444.56;5074138;28;19978;-69
2021/07/04 09:48:12;;;;;;;;;;;;;;;28.44;65.09;100454.50;5074880;28;19924;-69
2021/07/04 09:50:39;;;;;;;;;;;;;;;28.63;56.68;100440.34;5074374;28;19947;-68
2021/07/04 09:53:06;;;;;;;;;;;;;;;28.86;63.46;100443.00;5073316;28;19924;-68
2021/07/04 09:55:32;;;;;;;;;;;;;;;28.45;61.42;100442.25;5074227;28;19956;-68
2021/07/04 09:57:59;;;;;;;;;;;;;;;28.24;66.90;100438.22;5074619;28;19955;-67
2021/07/04 10:00:27;;;;;;;;;;;;;;;28.14;74.00;100429.66;5073461;28;19925;-69
2021/07/04 10:03:06;;;;;;;;;;;;;;;28.32;72.35;100431.41;5074378;28;19928;-69
2021/07/04 10:05:34;;;;;;;;;;;;;;;28.43;64.22;100427.69;5073929;28;19924;-68
2021/07/04 10:08:00;;;;;;;;;;;;;;;27.85;60.61;100427.66;5074194;28;19924;-68
2021/07/04 10:10:27;;;;;;;;;;;;;;;27.96;72.21;100427.88;5073803;28;19928;-68
2021/07/04 10:12:53;;;;;;;;;;;;;;;28.33;72.25;100427.53;5073797;28;19968;-68
2021/07/04 10:15:19;;;;;;;;;;;;;;;28.47;69.01;100428.88;5073674;28;20450;-68
2021/07/04 10:17:46;;;;;;;;;;;;;;;27.98;60.73;100418.16;5073754;28;19968;-68
2021/07/04 10:20:13;;;;;;;;;;;;;;;28.37;69.27;100425.94;5074018;28;19924;-68
2021/07/04 10:22:41;;;;;;;;;;;;;;;28.19;65.23;100422.25;5073753;28;19924;-67
2021/07/04 10:25:08;;;;;;;;;;;;;;;27.60;65.51;100422.38;5074049;28;19928;-67
2021/07/04 10:27:36;;;;;;;;;;;;;;;27.92;73.53;100410.78;5073318;28;19998;-69
2021/07/04 10:30:04;;;;;;;;;;;;;;;27.95;66.43;100417.81;5073608;28;19967;-69
2021/07/04 10:32:31;;;;;;;;;;;;;;;28.27;63.16;100417.34;5073158;28;20023;-69
2021/07/04 10:35:05;;;;;;;;;;;;;;;28.88;68.31;100412.88;5073574;28;20015;-69
2021/07/04 10:37:32;;;;;;;;;;;;;;;29.54;74.57;100408.56;5073363;28;19924;-70
2021/07/04 10:40:10;;;;;;;;;;;;;;;29.84;67.72;100402.50;5073519;28;19924;-69
2021/07/04 10:42:37;;;;;;;;;;;;;;;30.23;60.91;100404.38;5073802;28;20019;-69
2021/07/04 10:45:04;;;;;;;;;;;;;;;30.25;60.44;100401.31;5073436;28;19967;-70
2021/07/04 10:47:33;;;;;;;;;;;;;;;30.08;59.72;100402.28;5072725;28;20351;-69
2021/07/04 10:50:08;;;;;;;;;;;;;;;29.93;57.37;100399.28;5074248;28;20426;-69
2021/07/04 10:52:39;;;;;;;;;;;;;;;30.23;57.56;100394.03;5073501;28;19924;-69
2021/07/04 10:55:06;;;;;;;;;;;;;;;30.36;50.50;100394.72;5073201;28;19924;-69
2021/07/04 10:57:35;;;;;;;;;;;;;;;30.30;46.32;100396.59;5074646;28;19960;-69
2021/07/04 11:00:25;;;;;;;;;;;;;;;30.65;55.89;100394.44;5072727;28;19924;-69
2021/07/04 11:02:54;;;;;;;;;;;;;;;31.20;55.08;100383.94;5064485;28;19939;-69
2021/07/04 11:05:36;;;;;;;;;;;;;;;31.48;42.78;100384.66;5069785;28;20430;-69
2021/07/04 11:08:11;;;;;;;;;;;;;;;31.27;42.22;100378.09;5068883;28;20015;-70
2021/07/04 11:10:39;;;;;;;;;;;;;;;31.20;48.42;100379.19;5073246;28;19947;-71
2021/07/04 11:13:25;;;;;;;;;;;;;;;30.24;46.85;100378.09;5072071;28;19924;-71
2021/07/04 11:16:06;;;;;;;;;;;;;;;30.54;44.01;100377.53;5069033;28;20256;-68
2021/07/04 11:18:38;;;;;;;;;;;;;;;30.30;45.13;100379.81;5069248;28;19964;-68
2021/07/04 11:21:04;;;;;;;;;;;;;;;30.28;51.24;100376.44;5070257;28;20041;-69
2021/07/04 11:23:30;;;;;;;;;;;;;;;30.04;43.97;100368.38;5071396;28;20359;-68
2021/07/04 11:25:58;;;;;;;;;;;;;;;30.75;54.88;100366.53;5071967;28;19932;-68
2021/07/04 11:28:25;;;;;;;;;;;;;;;31.16;55.23;100365.97;5071563;28;20411;-68
2021/07/04 11:30:54;;;;;;;;;;;;;;;31.64;48.30;100365.97;5072722;28;19933;-69
2021/07/04 11:33:20;;;;;;;;;;;;;;;31.63;50.75;100367.09;5072653;28;20023;-69
2021/07/04 11:35:47;;;;;;;;;;;;;;;31.57;54.20;100362.56;5072668;28;20031;-68
2021/07/04 11:38:14;;;;;;;;;;;;;;;31.52;52.84;100361.41;5071600;28;19955;-68
2021/07/04 11:40:41;;;;;;;;;;;;;;;31.42;49.46;100352.97;5071604;28;19976;-68
2021/07/04 11:43:13;;;;;;;;;;;;;;;31.71;51.34;100349.75;5072197;28;19963;-68
2021/07/04 11:45:40;;;;;;;;;;;;;;;31.88;49.90;100355.97;5072283;28;20341;-69
2021/07/04 11:48:07;;;;;;;;;;;;;;;32.19;45.54;100349.59;5072267;28;20023;-67
2021/07/04 11:50:44;;;;;;;;;;;;;;;32.02;53.70;100350.66;5089579;28;20355;-68
2021/07/04 11:53:11;;;;;;;;;;;;;;;31.48;51.56;100349.06;5058702;28;19960;-67
2021/07/04 11:55:54;;;;;;;;;;;;;;;31.36;53.17;100354.03;5071886;28;20024;-68
2021/07/04 11:58:23;;;;;;;;;;;;;;;31.25;49.26;100341.94;5071007;28;19968;-67
2021/07/04 12:00:50;;;;;;;;;;;;;;;31.19;57.48;100343.03;5071248;28;19970;-70
2021/07/04 12:03:21;;;;;;;;;;;;;;;31.17;53.15;100332.06;5069851;28;20002;-69
2021/07/04 12:05:48;;;;;;;;;;;;;;;31.16;57.41;100335.16;5070519;28;19924;-69
2021/07/04 12:08:14;;;;;;;;;;;;;;;30.32;72.13;100337.56;5071268;28;19928;-70
2021/07/04 12:10:47;;;;;;;;;;;;;;;29.94;57.59;100328.25;5071955;28;20019;-69
2021/07/04 12:13:13;;;;;;;;;;;;;;;30.39;53.14;100329.81;5072168;28;19925;-69
2021/07/04 12:15:39;;;;;;;;;;;;;;;30.57;53.40;100319.34;5071621;28;19955;-69
2021/07/04 12:18:11;;;;;;;;;;;;;;;30.70;63.14;100318.88;5071869;28;19960;-69
2021/07/04 12:20:39;;;;;;;;;;;;;;;31.24;67.46;100317.81;5071765;28;19978;-69
2021/07/04 12:23:09;;;;;;;;;;;;;;;31.08;51.42;100313.25;5072087;28;20029;-69
2021/07/04 12:25:38;;;;;;;;;;;;;;;31.11;52.53;100316.38;5070560;28;19924;-68
2021/07/04 12:28:05;;;;;;;;;;;;;;;31.07;53.89;100309.63;5071503;28;19926;-69
2021/07/04 12:30:32;;;;;;;;;;;;;;;31.27;54.35;100310.81;5071511;28;19974;-68
2021/07/04 12:33:00;;;;;;;;;;;;;;;31.19;50.19;100310.25;5071330;28;19968;-69
2021/07/04 12:35:28;;;;;;;;;;;;;;;31.84;53.99;100306.28;5071403;28;19924;-68